Dong Fang You 2 — BXEC — position and weather

sailwx.info

Track history (hours):
 
Tides and Currents Weather Stations Pressure Air Temp Water Temp Dewpoint Dewpoint Depression Visibility Wind Speed Wind Dir Waves Ship Positions

Dong Fang You 2

Last reported at 2015-Feb-26 16:16 UTC. Time now 2015-Mar-01 12:33 UTC.
Position N 21°40' E 113°03'.

Length 82 m; draft 4.6 m.

Type: Ship. MMSI: 412464680.

Date/timePositionNaut miles runAvg speedWind from/ knotsBaromVisibWave heightAir tempDewpointWater temp
2015-Feb-26 16:16N 21°40' E 113°03'7 9.8
2015-Feb-26 15:32N 21°45' E 113°09'1110.4
2015-Feb-26 14:31N 21°50' E 113°19'2410.0
2015-Feb-26 12:07N 22°04' E 113°40'5 9.1
2015-Feb-26 11:33N 22°07' E 113°45'10 9.7
2015-Feb-26 10:33N 22°16' E 113°47'35 1.4
2015-Feb-25 09:22N 22°49' E 113°34'2 2.0
2015-Feb-25 08:28N 22°51' E 113°34'0 0.0
2015-Feb-25 07:22N 22°51' E 113°34'0 0.0
2015-Feb-25 06:22N 22°51' E 113°34'0 0.0
2015-Feb-25 05:10N 22°51' E 113°34'0 0.0
2015-Feb-25 04:28N 22°51' E 113°34'0 0.1
2015-Feb-25 03:22N 22°51' E 113°34'0 0.0
2015-Feb-25 02:28N 22°51' E 113°34'0 0.0
2015-Feb-25 00:04N 22°51' E 113°34'0 0.0
2015-Feb-24 23:22N 22°51' E 113°34'0 0.0
2015-Feb-24 20:10N 22°51' E 113°34'0 0.0
2015-Feb-24 10:16N 22°51' E 113°34'0 0.1
2015-Feb-24 09:22N 22°51' E 113°34'0 0.0
2015-Feb-24 08:27N 22°51' E 113°34'7 7.4
2015-Feb-24 07:33N 22°58' E 113°32'8 8.4
2015-Feb-24 06:33N 23°05' E 113°27'2 1.6
2015-Feb-24 05:19N 23°04' E 113°25'0 0.0
2015-Feb-24 04:31N 23°04' E 113°25'0 0.1
2015-Feb-24 03:31N 23°04' E 113°25'0 0.1
2015-Feb-24 02:31N 23°04' E 113°25'0 0.0
2015-Feb-24 01:19N 23°04' E 113°25'0 0.0
2015-Feb-24 00:25N 23°04' E 113°25'0 0.0
2015-Feb-23 23:31N 23°04' E 113°25'0 0.0
2015-Feb-23 22:31N 23°04' E 113°25'0 0.1
2015-Feb-23 21:31N 23°04' E 113°25'0 0.0
2015-Feb-23 20:31N 23°04' E 113°25'0 0.0
2015-Feb-23 19:19N 23°04' E 113°25'0 0.0
2015-Feb-23 18:31N 23°04' E 113°25'0 0.0
2015-Feb-23 17:31N 23°04' E 113°25'0 0.0
2015-Feb-23 16:31N 23°04' E 113°25'0 0.0
2015-Feb-23 15:33N 23°04' E 113°25'0 0.0
2015-Feb-23 14:33N 23°04' E 113°25'0 0.0
2015-Feb-23 13:33N 23°04' E 113°25'0 0.1
2015-Feb-23 12:33N 23°04' E 113°25'0 0.0
2015-Feb-23 11:33N 23°04' E 113°25'0 0.1
2015-Feb-23 10:33N 23°04' E 113°25'0 0.1
2015-Feb-23 09:33N 23°04' E 113°25'1 1.1
2015-Feb-23 08:33N 23°05' E 113°26'6 5.8
2015-Feb-23 07:33N 23°01' E 113°31'8 8.0
2015-Feb-23 06:33N 22°54' E 113°34'39 9.8
2015-Feb-23 02:33N 22°16' E 113°48'9 8.8
2015-Feb-23 01:33N 22°08' E 113°46'0 0.2
2015-Feb-23 00:28N 22°08' E 113°46'0 0.0
2015-Feb-22 23:28N 22°08' E 113°46'0 0.1
2015-Feb-22 22:28N 22°08' E 113°46'0 0.0
2015-Feb-22 21:22N 22°08' E 113°46'0 0.0
2015-Feb-22 20:28N 22°08' E 113°46'0 0.0
2015-Feb-22 19:22N 22°08' E 113°46'0 0.1
2015-Feb-22 18:28N 22°08' E 113°46'0 0.1
2015-Feb-22 17:28N 22°08' E 113°46'0 0.0
2015-Feb-22 16:28N 22°08' E 113°46'0 0.0
2015-Feb-22 15:28N 22°08' E 113°46'0 0.0
2015-Feb-22 14:28N 22°08' E 113°46'0 0.0
2015-Feb-22 13:28N 22°08' E 113°46'0 0.0
2015-Feb-22 12:28N 22°08' E 113°46'0 0.0
2015-Feb-22 11:28N 22°08' E 113°46'0 0.1
2015-Feb-22 10:28N 22°08' E 113°46'0 0.0
2015-Feb-22 09:22N 22°08' E 113°46'0 0.0
2015-Feb-22 08:28N 22°08' E 113°46'0 0.0
2015-Feb-22 07:28N 22°08' E 113°46'0 0.0
2015-Feb-22 06:28N 22°08' E 113°46'0 0.0
2015-Feb-22 05:28N 22°08' E 113°46'0 0.0
2015-Feb-22 04:28N 22°08' E 113°46'0 0.0
2015-Feb-22 03:28N 22°08' E 113°46'0 0.0
2015-Feb-22 02:28N 22°08' E 113°46'0 0.0
2015-Feb-22 01:28N 22°08' E 113°46'0 0.1
2015-Feb-22 00:28N 22°08' E 113°46'0 0.0
2015-Feb-21 23:28N 22°08' E 113°46'0 0.1
2015-Feb-21 22:28N 22°08' E 113°46'0 0.0
2015-Feb-21 21:28N 22°08' E 113°46'0 0.0
2015-Feb-21 20:28N 22°08' E 113°46'0 0.0
2015-Feb-21 19:28N 22°08' E 113°46'0 0.0
2015-Feb-21 18:22N 22°08' E 113°46'0 0.0
2015-Feb-21 17:22N 22°08' E 113°46'0 0.1
2015-Feb-21 16:28N 22°08' E 113°46'0 0.1
2015-Feb-21 15:28N 22°08' E 113°46'0 0.0
2015-Feb-21 14:28N 22°08' E 113°46'0 0.1
2015-Feb-21 13:28N 22°08' E 113°46'0 0.0
2015-Feb-21 12:28N 22°08' E 113°46'0 0.0
2015-Feb-21 11:28N 22°08' E 113°46'0 0.1
2015-Feb-21 10:28N 22°08' E 113°46'0 0.1
2015-Feb-21 09:28N 22°08' E 113°46'0 0.0
2015-Feb-21 08:28N 22°08' E 113°46'0 0.0
2015-Feb-21 07:28N 22°08' E 113°46'0 0.0
2015-Feb-21 06:16N 22°08' E 113°46'0 0.1
2015-Feb-21 05:28N 22°08' E 113°46'0 0.0
2015-Feb-21 04:22N 22°08' E 113°46'0 0.0
2015-Feb-21 03:28N 22°08' E 113°46'0 0.0
2015-Feb-21 02:28N 22°08' E 113°46'0 0.0
2015-Feb-21 01:28N 22°08' E 113°46'0 0.0
2015-Feb-21 00:28N 22°08' E 113°46'0 0.0
2015-Feb-20 23:28N 22°08' E 113°46'0 0.0
2015-Feb-20 22:28N 22°08' E 113°46'0 0.1
2015-Feb-20 21:22N 22°08' E 113°46'0 0.0
2015-Feb-20 20:28N 22°08' E 113°46'0 0.0
2015-Feb-20 19:28N 22°08' E 113°46'0 0.0
2015-Feb-20 18:28N 22°08' E 113°46'0 0.1
2015-Feb-20 17:28N 22°08' E 113°46'0 0.1
2015-Feb-20 16:28N 22°08' E 113°46'0 0.0
2015-Feb-20 15:28N 22°08' E 113°46'0 0.0
2015-Feb-20 14:22N 22°08' E 113°46'0 0.0
2015-Feb-20 13:28N 22°08' E 113°46'0 0.0
2015-Feb-20 12:28N 22°08' E 113°46'0 0.0
2015-Feb-20 11:22N 22°08' E 113°46'0 0.0
2015-Feb-20 10:28N 22°08' E 113°46'4 4.2
2015-Feb-20 09:31N 22°05' E 113°43'38 7.6
2015-Feb-20 04:30N 21°44' E 113°08'  
Track history (hours):
 
Tides and Currents Weather Stations Pressure Air Temp Water Temp Dewpoint Dewpoint Depression Visibility Wind Speed Wind Dir Waves Ship Positions

Dong Fang You 2

Last reported at 2015-Feb-26 16:16 UTC. Time now 2015-Mar-01 12:33 UTC.
Position N 21°40' E 113°03'.

Length 82 m; draft 4.6 m.

Type: Ship. MMSI: 412464680.

Date/timePositionNaut miles runAvg speedWind from/ knotsBaromVisibWave heightAir tempDewpointWater temp
2015-Feb-26 16:16N 21°40' E 113°03'7 9.8
2015-Feb-26 15:32N 21°45' E 113°09'1110.4
2015-Feb-26 14:31N 21°50' E 113°19'2410.0
2015-Feb-26 12:07N 22°04' E 113°40'5 9.1
2015-Feb-26 11:33N 22°07' E 113°45'10 9.7
2015-Feb-26 10:33N 22°16' E 113°47'35 1.4
2015-Feb-25 09:22N 22°49' E 113°34'2 2.0
2015-Feb-25 08:28N 22°51' E 113°34'0 0.0
2015-Feb-25 07:22N 22°51' E 113°34'0 0.0
2015-Feb-25 06:22N 22°51' E 113°34'0 0.0
2015-Feb-25 05:10N 22°51' E 113°34'0 0.0
2015-Feb-25 04:28N 22°51' E 113°34'0 0.1
2015-Feb-25 03:22N 22°51' E 113°34'0 0.0
2015-Feb-25 02:28N 22°51' E 113°34'0 0.0
2015-Feb-25 00:04N 22°51' E 113°34'0 0.0
2015-Feb-24 23:22N 22°51' E 113°34'0 0.0
2015-Feb-24 20:10N 22°51' E 113°34'0 0.0
2015-Feb-24 10:16N 22°51' E 113°34'0 0.1
2015-Feb-24 09:22N 22°51' E 113°34'0 0.0
2015-Feb-24 08:27N 22°51' E 113°34'7 7.4
2015-Feb-24 07:33N 22°58' E 113°32'8 8.4
2015-Feb-24 06:33N 23°05' E 113°27'2 1.6
2015-Feb-24 05:19N 23°04' E 113°25'0 0.0
2015-Feb-24 04:31N 23°04' E 113°25'0 0.1
2015-Feb-24 03:31N 23°04' E 113°25'0 0.1
2015-Feb-24 02:31N 23°04' E 113°25'0 0.0
2015-Feb-24 01:19N 23°04' E 113°25'0 0.0
2015-Feb-24 00:25N 23°04' E 113°25'0 0.0
2015-Feb-23 23:31N 23°04' E 113°25'0 0.0
2015-Feb-23 22:31N 23°04' E 113°25'0 0.1
2015-Feb-23 21:31N 23°04' E 113°25'0 0.0
2015-Feb-23 20:31N 23°04' E 113°25'0 0.0
2015-Feb-23 19:19N 23°04' E 113°25'0 0.0
2015-Feb-23 18:31N 23°04' E 113°25'0 0.0
2015-Feb-23 17:31N 23°04' E 113°25'0 0.0
2015-Feb-23 16:31N 23°04' E 113°25'0 0.0
2015-Feb-23 15:33N 23°04' E 113°25'0 0.0
2015-Feb-23 14:33N 23°04' E 113°25'0 0.0
2015-Feb-23 13:33N 23°04' E 113°25'0 0.1
2015-Feb-23 12:33N 23°04' E 113°25'0 0.0
2015-Feb-23 11:33N 23°04' E 113°25'0 0.1
2015-Feb-23 10:33N 23°04' E 113°25'0 0.1
2015-Feb-23 09:33N 23°04' E 113°25'1 1.1
2015-Feb-23 08:33N 23°05' E 113°26'6 5.8
2015-Feb-23 07:33N 23°01' E 113°31'8 8.0
2015-Feb-23 06:33N 22°54' E 113°34'39 9.8
2015-Feb-23 02:33N 22°16' E 113°48'9 8.8
2015-Feb-23 01:33N 22°08' E 113°46'0 0.2
2015-Feb-23 00:28N 22°08' E 113°46'0 0.0
2015-Feb-22 23:28N 22°08' E 113°46'0 0.1
2015-Feb-22 22:28N 22°08' E 113°46'0 0.0
2015-Feb-22 21:22N 22°08' E 113°46'0 0.0
2015-Feb-22 20:28N 22°08' E 113°46'0 0.0
2015-Feb-22 19:22N 22°08' E 113°46'0 0.1
2015-Feb-22 18:28N 22°08' E 113°46'0 0.1
2015-Feb-22 17:28N 22°08' E 113°46'0 0.0
2015-Feb-22 16:28N 22°08' E 113°46'0 0.0
2015-Feb-22 15:28N 22°08' E 113°46'0 0.0
2015-Feb-22 14:28N 22°08' E 113°46'0 0.0
2015-Feb-22 13:28N 22°08' E 113°46'0 0.0
2015-Feb-22 12:28N 22°08' E 113°46'0 0.0
2015-Feb-22 11:28N 22°08' E 113°46'0 0.1
2015-Feb-22 10:28N 22°08' E 113°46'0 0.0
2015-Feb-22 09:22N 22°08' E 113°46'0 0.0
2015-Feb-22 08:28N 22°08' E 113°46'0 0.0
2015-Feb-22 07:28N 22°08' E 113°46'0 0.0
2015-Feb-22 06:28N 22°08' E 113°46'0 0.0
2015-Feb-22 05:28N 22°08' E 113°46'0 0.0
2015-Feb-22 04:28N 22°08' E 113°46'0 0.0
2015-Feb-22 03:28N 22°08' E 113°46'0 0.0
2015-Feb-22 02:28N 22°08' E 113°46'0 0.0
2015-Feb-22 01:28N 22°08' E 113°46'0 0.1
2015-Feb-22 00:28N 22°08' E 113°46'0 0.0
2015-Feb-21 23:28N 22°08' E 113°46'0 0.1
2015-Feb-21 22:28N 22°08' E 113°46'0 0.0
2015-Feb-21 21:28N 22°08' E 113°46'0 0.0
2015-Feb-21 20:28N 22°08' E 113°46'0 0.0
2015-Feb-21 19:28N 22°08' E 113°46'0 0.0
2015-Feb-21 18:22N 22°08' E 113°46'0 0.0
2015-Feb-21 17:22N 22°08' E 113°46'0 0.1
2015-Feb-21 16:28N 22°08' E 113°46'0 0.1
2015-Feb-21 15:28N 22°08' E 113°46'0 0.0
2015-Feb-21 14:28N 22°08' E 113°46'0 0.1
2015-Feb-21 13:28N 22°08' E 113°46'0 0.0
2015-Feb-21 12:28N 22°08' E 113°46'0 0.0
2015-Feb-21 11:28N 22°08' E 113°46'0 0.1
2015-Feb-21 10:28N 22°08' E 113°46'0 0.1
2015-Feb-21 09:28N 22°08' E 113°46'0 0.0
2015-Feb-21 08:28N 22°08' E 113°46'0 0.0
2015-Feb-21 07:28N 22°08' E 113°46'0 0.0
2015-Feb-21 06:16N 22°08' E 113°46'0 0.1
2015-Feb-21 05:28N 22°08' E 113°46'0 0.0
2015-Feb-21 04:22N 22°08' E 113°46'0 0.0
2015-Feb-21 03:28N 22°08' E 113°46'0 0.0
2015-Feb-21 02:28N 22°08' E 113°46'0 0.0
2015-Feb-21 01:28N 22°08' E 113°46'0 0.0
2015-Feb-21 00:28N 22°08' E 113°46'0 0.0
2015-Feb-20 23:28N 22°08' E 113°46'0 0.0
2015-Feb-20 22:28N 22°08' E 113°46'0 0.1
2015-Feb-20 21:22N 22°08' E 113°46'0 0.0
2015-Feb-20 20:28N 22°08' E 113°46'0 0.0
2015-Feb-20 19:28N 22°08' E 113°46'0 0.0
2015-Feb-20 18:28N 22°08' E 113°46'0 0.1
2015-Feb-20 17:28N 22°08' E 113°46'0 0.1
2015-Feb-20 16:28N 22°08' E 113°46'0 0.0
2015-Feb-20 15:28N 22°08' E 113°46'0 0.0
2015-Feb-20 14:22N 22°08' E 113°46'0 0.0
2015-Feb-20 13:28N 22°08' E 113°46'0 0.0
2015-Feb-20 12:28N 22°08' E 113°46'0 0.0
2015-Feb-20 11:22N 22°08' E 113°46'0 0.0
2015-Feb-20 10:28N 22°08' E 113°46'4 4.2
2015-Feb-20 09:31N 22°05' E 113°43'38 7.6
2015-Feb-20 04:30N 21°44' E 113°08'  

Dump ship's entire track history